sensor_id;sensor_type;location;lat;lon;timestamp;temperature;humidity
55313;DHT22;46892;45.668;11.756;2022-08-02T00:02:18;25.10;61.30
55313;DHT22;46892;45.668;11.756;2022-08-02T00:04:44;25.10;61.30
55313;DHT22;46892;45.668;11.756;2022-08-02T00:07:09;25.00;61.40
55313;DHT22;46892;45.668;11.756;2022-08-02T00:09:35;25.00;61.60
55313;DHT22;46892;45.668;11.756;2022-08-02T00:12:01;25.00;61.60
55313;DHT22;46892;45.668;11.756;2022-08-02T00:14:26;24.90;61.60
55313;DHT22;46892;45.668;11.756;2022-08-02T00:16:52;24.80;61.80
55313;DHT22;46892;45.668;11.756;2022-08-02T00:19:18;24.80;61.90
55313;DHT22;46892;45.668;11.756;2022-08-02T00:21:43;24.80;62.10
55313;DHT22;46892;45.668;11.756;2022-08-02T00:24:09;24.70;62.30
55313;DHT22;46892;45.668;11.756;2022-08-02T00:26:35;24.70;62.40
55313;DHT22;46892;45.668;11.756;2022-08-02T00:29:00;24.80;62.20
55313;DHT22;46892;45.668;11.756;2022-08-02T00:31:26;24.90;62.20
55313;DHT22;46892;45.668;11.756;2022-08-02T00:33:51;24.80;62.20
55313;DHT22;46892;45.668;11.756;2022-08-02T00:36:17;24.80;62.30
55313;DHT22;46892;45.668;11.756;2022-08-02T00:38:43;24.80;62.30
55313;DHT22;46892;45.668;11.756;2022-08-02T00:41:15;24.80;62.30
55313;DHT22;46892;45.668;11.756;2022-08-02T00:43:42;24.80;62.00
55313;DHT22;46892;45.668;11.756;2022-08-02T00:46:08;24.90;61.40
55313;DHT22;46892;45.668;11.756;2022-08-02T00:48:36;24.80;60.00
55313;DHT22;46892;45.668;11.756;2022-08-02T00:51:02;24.80;59.20
55313;DHT22;46892;45.668;11.756;2022-08-02T00:53:28;24.90;58.80
55313;DHT22;46892;45.668;11.756;2022-08-02T00:55:54;25.00;58.60
55313;DHT22;46892;45.668;11.756;2022-08-02T00:58:19;25.00;59.00
55313;DHT22;46892;45.668;11.756;2022-08-02T01:00:45;25.10;58.30
55313;DHT22;46892;45.668;11.756;2022-08-02T01:03:11;25.00;58.10
55313;DHT22;46892;45.668;11.756;2022-08-02T01:05:36;25.10;57.70
55313;DHT22;46892;45.668;11.756;2022-08-02T01:08:02;25.00;57.90
55313;DHT22;46892;45.668;11.756;2022-08-02T01:10:28;25.00;58.20
55313;DHT22;46892;45.668;11.756;2022-08-02T01:12:54;25.00;58.80
55313;DHT22;46892;45.668;11.756;2022-08-02T01:15:20;25.00;58.40
55313;DHT22;46892;45.668;11.756;2022-08-02T01:18:04;25.00;58.80
55313;DHT22;46892;45.668;11.756;2022-08-02T01:29:16;25.20;58.00
55313;DHT22;46892;45.668;11.756;2022-08-02T01:31:53;25.20;57.60
55313;DHT22;46892;45.668;11.756;2022-08-02T01:37:32;25.30;57.50
55313;DHT22;46892;45.668;11.756;2022-08-02T01:40:11;25.30;57.60
55313;DHT22;46892;45.668;11.756;2022-08-02T01:42:43;25.20;57.90
55313;DHT22;46892;45.668;11.756;2022-08-02T01:45:11;25.20;57.70
55313;DHT22;46892;45.668;11.756;2022-08-02T01:47:39;25.10;57.70
55313;DHT22;46892;45.668;11.756;2022-08-02T01:50:07;25.00;57.60
55313;DHT22;46892;45.668;11.756;2022-08-02T01:52:38;24.90;57.70
55313;DHT22;46892;45.668;11.756;2022-08-02T01:55:15;24.90;57.70
55313;DHT22;46892;45.668;11.756;2022-08-02T01:57:52;24.80;58.10
55313;DHT22;46892;45.668;11.756;2022-08-02T02:00:21;24.70;57.80
55313;DHT22;46892;45.668;11.756;2022-08-02T02:02:49;24.70;57.70
55313;DHT22;46892;45.668;11.756;2022-08-02T02:05:19;24.70;57.60
55313;DHT22;46892;45.668;11.756;2022-08-02T02:07:48;24.60;58.00
55313;DHT22;46892;45.668;11.756;2022-08-02T02:10:18;24.50;58.20
55313;DHT22;46892;45.668;11.756;2022-08-02T02:12:48;24.50;58.10
55313;DHT22;46892;45.668;11.756;2022-08-02T02:15:15;24.40;58.50
55313;DHT22;46892;45.668;11.756;2022-08-02T02:17:43;24.40;58.70
55313;DHT22;46892;45.668;11.756;2022-08-02T02:20:15;24.30;58.80
55313;DHT22;46892;45.668;11.756;2022-08-02T02:22:42;24.30;58.90
55313;DHT22;46892;45.668;11.756;2022-08-02T02:25:09;24.20;59.00
55313;DHT22;46892;45.668;11.756;2022-08-02T02:27:36;24.20;59.10
55313;DHT22;46892;45.668;11.756;2022-08-02T02:30:04;24.10;58.70
55313;DHT22;46892;45.668;11.756;2022-08-02T02:32:31;24.00;58.60
55313;DHT22;46892;45.668;11.756;2022-08-02T02:34:58;23.90;58.60
55313;DHT22;46892;45.668;11.756;2022-08-02T02:37:26;23.80;58.90
55313;DHT22;46892;45.668;11.756;2022-08-02T02:39:53;23.70;59.10
55313;DHT22;46892;45.668;11.756;2022-08-02T02:42:25;23.60;59.10
55313;DHT22;46892;45.668;11.756;2022-08-02T02:44:53;23.60;59.10
55313;DHT22;46892;45.668;11.756;2022-08-02T02:47:20;23.50;59.20
55313;DHT22;46892;45.668;11.756;2022-08-02T02:49:48;23.40;59.50
55313;DHT22;46892;45.668;11.756;2022-08-02T02:52:16;23.30;59.50
55313;DHT22;46892;45.668;11.756;2022-08-02T02:54:44;23.40;59.40
55313;DHT22;46892;45.668;11.756;2022-08-02T02:57:12;23.40;59.30
55313;DHT22;46892;45.668;11.756;2022-08-02T02:59:38;23.50;59.40
55313;DHT22;46892;45.668;11.756;2022-08-02T03:02:05;23.50;59.20
55313;DHT22;46892;45.668;11.756;2022-08-02T03:04:31;23.50;59.60
55313;DHT22;46892;45.668;11.756;2022-08-02T03:06:59;23.70;59.30
55313;DHT22;46892;45.668;11.756;2022-08-02T03:09:26;23.70;59.50
55313;DHT22;46892;45.668;11.756;2022-08-02T03:11:53;23.60;61.20
55313;DHT22;46892;45.668;11.756;2022-08-02T03:14:19;23.50;61.90
55313;DHT22;46892;45.668;11.756;2022-08-02T03:16:49;23.30;64.60
55313;DHT22;46892;45.668;11.756;2022-08-02T03:19:15;23.10;66.30
55313;DHT22;46892;45.668;11.756;2022-08-02T03:21:42;22.70;67.60
55313;DHT22;46892;45.668;11.756;2022-08-02T03:24:08;22.20;69.00
55313;DHT22;46892;45.668;11.756;2022-08-02T03:26:34;21.70;70.50
55313;DHT22;46892;45.668;11.756;2022-08-02T03:29:00;21.30;70.60
55313;DHT22;46892;45.668;11.756;2022-08-02T03:31:26;21.00;72.00
55313;DHT22;46892;45.668;11.756;2022-08-02T03:33:53;21.10;73.10
55313;DHT22;46892;45.668;11.756;2022-08-02T03:36:20;21.00;73.60
55313;DHT22;46892;45.668;11.756;2022-08-02T03:38:47;21.10;74.10
55313;DHT22;46892;45.668;11.756;2022-08-02T03:41:16;21.00;74.30
55313;DHT22;46892;45.668;11.756;2022-08-02T03:43:43;20.90;75.70
55313;DHT22;46892;45.668;11.756;2022-08-02T03:46:12;20.90;77.20
55313;DHT22;46892;45.668;11.756;2022-08-02T03:48:39;21.00;76.60
55313;DHT22;46892;45.668;11.756;2022-08-02T03:51:05;20.90;76.20
55313;DHT22;46892;45.668;11.756;2022-08-02T03:53:32;21.00;76.60
55313;DHT22;46892;45.668;11.756;2022-08-02T03:55:58;21.20;77.10
55313;DHT22;46892;45.668;11.756;2022-08-02T03:58:24;21.30;75.40
55313;DHT22;46892;45.668;11.756;2022-08-02T04:00:55;21.40;74.80
55313;DHT22;46892;45.668;11.756;2022-08-02T04:03:21;21.40;74.80
55313;DHT22;46892;45.668;11.756;2022-08-02T04:05:47;21.40;74.20
55313;DHT22;46892;45.668;11.756;2022-08-02T04:08:13;21.30;77.00
55313;DHT22;46892;45.668;11.756;2022-08-02T04:10:39;21.10;77.00
55313;DHT22;46892;45.668;11.756;2022-08-02T04:13:30;20.80;77.10
55313;DHT22;46892;45.668;11.756;2022-08-02T04:16:03;20.70;78.10
55313;DHT22;46892;45.668;11.756;2022-08-02T04:18:35;20.80;76.80
55313;DHT22;46892;45.668;11.756;2022-08-02T04:21:05;20.80;76.50
55313;DHT22;46892;45.668;11.756;2022-08-02T04:23:32;20.90;76.20
55313;DHT22;46892;45.668;11.756;2022-08-02T04:26:01;20.80;76.40
55313;DHT22;46892;45.668;11.756;2022-08-02T04:28:28;20.90;75.30
55313;DHT22;46892;45.668;11.756;2022-08-02T04:30:55;20.80;73.90
55313;DHT22;46892;45.668;11.756;2022-08-02T04:33:21;20.80;73.40
55313;DHT22;46892;45.668;11.756;2022-08-02T04:35:48;20.70;73.40
55313;DHT22;46892;45.668;11.756;2022-08-02T04:38:14;20.70;74.30
55313;DHT22;46892;45.668;11.756;2022-08-02T04:40:48;20.60;75.50
55313;DHT22;46892;45.668;11.756;2022-08-02T04:43:14;20.60;75.20
55313;DHT22;46892;45.668;11.756;2022-08-02T04:45:40;20.60;75.50
55313;DHT22;46892;45.668;11.756;2022-08-02T04:48:07;20.60;75.60
55313;DHT22;46892;45.668;11.756;2022-08-02T04:50:33;20.60;74.70
55313;DHT22;46892;45.668;11.756;2022-08-02T04:52:59;20.70;76.40
55313;DHT22;46892;45.668;11.756;2022-08-02T04:55:25;20.70;75.40
55313;DHT22;46892;45.668;11.756;2022-08-02T04:57:53;20.80;76.60
55313;DHT22;46892;45.668;11.756;2022-08-02T05:00:19;20.70;77.60
55313;DHT22;46892;45.668;11.756;2022-08-02T05:02:45;20.50;77.60
55313;DHT22;46892;45.668;11.756;2022-08-02T05:05:11;20.70;79.90
55313;DHT22;46892;45.668;11.756;2022-08-02T05:07:37;20.80;79.20
55313;DHT22;46892;45.668;11.756;2022-08-02T05:10:03;20.70;80.50
55313;DHT22;46892;45.668;11.756;2022-08-02T05:12:29;20.70;79.70
55313;DHT22;46892;45.668;11.756;2022-08-02T05:14:54;20.30;78.80
55313;DHT22;46892;45.668;11.756;2022-08-02T05:17:20;20.30;80.70
55313;DHT22;46892;45.668;11.756;2022-08-02T05:19:46;20.20;80.60
55313;DHT22;46892;45.668;11.756;2022-08-02T05:22:11;20.40;80.70
55313;DHT22;46892;45.668;11.756;2022-08-02T05:24:37;20.40;80.80
55313;DHT22;46892;45.668;11.756;2022-08-02T05:27:03;20.50;81.10
55313;DHT22;46892;45.668;11.756;2022-08-02T05:29:28;20.50;79.90
55313;DHT22;46892;45.668;11.756;2022-08-02T05:31:54;20.40;78.90
55313;DHT22;46892;45.668;11.756;2022-08-02T05:34:20;20.40;79.10
55313;DHT22;46892;45.668;11.756;2022-08-02T05:36:45;20.40;78.70
55313;DHT22;46892;45.668;11.756;2022-08-02T05:39:11;20.40;78.60
55313;DHT22;46892;45.668;11.756;2022-08-02T05:41:37;20.30;78.90
55313;DHT22;46892;45.668;11.756;2022-08-02T05:44:03;20.30;80.00
55313;DHT22;46892;45.668;11.756;2022-08-02T05:46:28;20.40;79.70
55313;DHT22;46892;45.668;11.756;2022-08-02T05:48:54;20.60;80.50
55313;DHT22;46892;45.668;11.756;2022-08-02T05:51:28;20.70;80.80
55313;DHT22;46892;45.668;11.756;2022-08-02T05:57:40;20.70;80.10
55313;DHT22;46892;45.668;11.756;2022-08-02T06:00:03;20.60;80.30
55313;DHT22;46892;45.668;11.756;2022-08-02T06:05:12;20.50;80.70
55313;DHT22;46892;45.668;11.756;2022-08-02T06:07:39;20.60;80.10
55313;DHT22;46892;45.668;11.756;2022-08-02T06:10:06;20.50;80.00
55313;DHT22;46892;45.668;11.756;2022-08-02T06:12:35;20.50;80.80
55313;DHT22;46892;45.668;11.756;2022-08-02T06:15:04;20.50;79.70
55313;DHT22;46892;45.668;11.756;2022-08-02T06:17:31;20.50;80.60
55313;DHT22;46892;45.668;11.756;2022-08-02T06:19:57;20.40;81.50
55313;DHT22;46892;45.668;11.756;2022-08-02T06:22:27;20.50;82.20
55313;DHT22;46892;45.668;11.756;2022-08-02T06:24:54;20.50;81.20
55313;DHT22;46892;45.668;11.756;2022-08-02T06:27:26;20.50;81.00
55313;DHT22;46892;45.668;11.756;2022-08-02T06:29:53;20.50;80.90
55313;DHT22;46892;45.668;11.756;2022-08-02T06:32:19;20.60;80.80
55313;DHT22;46892;45.668;11.756;2022-08-02T06:34:46;20.50;80.40
55313;DHT22;46892;45.668;11.756;2022-08-02T06:39:53;20.50;80.70
55313;DHT22;46892;45.668;11.756;2022-08-02T06:42:35;20.50;80.90
55313;DHT22;46892;45.668;11.756;2022-08-02T06:45:02;20.70;81.30
55313;DHT22;46892;45.668;11.756;2022-08-02T06:47:28;20.70;80.50
55313;DHT22;46892;45.668;11.756;2022-08-02T06:49:54;20.70;81.00
55313;DHT22;46892;45.668;11.756;2022-08-02T06:52:25;20.80;81.10
55313;DHT22;46892;45.668;11.756;2022-08-02T06:54:51;20.80;80.50
55313;DHT22;46892;45.668;11.756;2022-08-02T06:57:17;20.80;80.80
55313;DHT22;46892;45.668;11.756;2022-08-02T06:59:43;20.90;80.20
55313;DHT22;46892;45.668;11.756;2022-08-02T07:02:10;20.90;79.40
55313;DHT22;46892;45.668;11.756;2022-08-02T07:04:36;20.90;80.00
55313;DHT22;46892;45.668;11.756;2022-08-02T07:07:02;20.90;80.40
55313;DHT22;46892;45.668;11.756;2022-08-02T07:09:28;21.00;80.80
55313;DHT22;46892;45.668;11.756;2022-08-02T07:11:53;21.10;79.60
55313;DHT22;46892;45.668;11.756;2022-08-02T07:14:20;21.10;81.20
55313;DHT22;46892;45.668;11.756;2022-08-02T07:16:45;21.20;80.30
55313;DHT22;46892;45.668;11.756;2022-08-02T07:19:11;21.10;80.70
55313;DHT22;46892;45.668;11.756;2022-08-02T07:21:37;21.20;81.10
55313;DHT22;46892;45.668;11.756;2022-08-02T07:24:02;21.30;81.80
55313;DHT22;46892;45.668;11.756;2022-08-02T07:26:28;21.30;79.90
55313;DHT22;46892;45.668;11.756;2022-08-02T07:28:54;21.30;79.10
55313;DHT22;46892;45.668;11.756;2022-08-02T07:31:20;21.50;77.10
55313;DHT22;46892;45.668;11.756;2022-08-02T07:33:45;21.50;77.90
55313;DHT22;46892;45.668;11.756;2022-08-02T07:36:11;21.50;77.30
55313;DHT22;46892;45.668;11.756;2022-08-02T07:38:37;21.50;77.00
55313;DHT22;46892;45.668;11.756;2022-08-02T07:41:02;21.60;76.40
55313;DHT22;46892;45.668;11.756;2022-08-02T07:43:28;21.70;77.00
55313;DHT22;46892;45.668;11.756;2022-08-02T07:45:54;21.70;74.10
55313;DHT22;46892;45.668;11.756;2022-08-02T07:48:19;21.80;74.40
55313;DHT22;46892;45.668;11.756;2022-08-02T07:50:45;21.90;75.00
55313;DHT22;46892;45.668;11.756;2022-08-02T07:53:11;22.00;76.90
55313;DHT22;46892;45.668;11.756;2022-08-02T07:55:37;22.30;75.60
55313;DHT22;46892;45.668;11.756;2022-08-02T07:58:03;22.30;75.80
55313;DHT22;46892;45.668;11.756;2022-08-02T08:00:29;22.50;74.60
55313;DHT22;46892;45.668;11.756;2022-08-02T08:02:55;22.50;74.30
55313;DHT22;46892;45.668;11.756;2022-08-02T08:05:20;22.60;75.70
55313;DHT22;46892;45.668;11.756;2022-08-02T08:07:48;22.70;74.60
55313;DHT22;46892;45.668;11.756;2022-08-02T08:10:13;22.80;74.60
55313;DHT22;46892;45.668;11.756;2022-08-02T08:12:39;22.80;74.20
55313;DHT22;46892;45.668;11.756;2022-08-02T08:15:05;22.90;73.70
55313;DHT22;46892;45.668;11.756;2022-08-02T08:17:31;23.00;74.00
55313;DHT22;46892;45.668;11.756;2022-08-02T08:19:57;23.00;74.50
55313;DHT22;46892;45.668;11.756;2022-08-02T08:22:23;23.10;73.70
55313;DHT22;46892;45.668;11.756;2022-08-02T08:24:49;23.20;74.10
55313;DHT22;46892;45.668;11.756;2022-08-02T08:27:15;23.40;72.20
55313;DHT22;46892;45.668;11.756;2022-08-02T08:29:42;23.50;72.70
55313;DHT22;46892;45.668;11.756;2022-08-02T08:32:08;23.50;73.00
55313;DHT22;46892;45.668;11.756;2022-08-02T08:34:34;23.40;73.20
55313;DHT22;46892;45.668;11.756;2022-08-02T08:37:00;23.50;73.90
55313;DHT22;46892;45.668;11.756;2022-08-02T08:39:28;23.60;72.80
55313;DHT22;46892;45.668;11.756;2022-08-02T08:41:53;23.70;75.50
55313;DHT22;46892;45.668;11.756;2022-08-02T08:44:20;23.80;73.30
55313;DHT22;46892;45.668;11.756;2022-08-02T08:46:48;24.00;73.80
55313;DHT22;46892;45.668;11.756;2022-08-02T08:49:39;24.20;70.80
55313;DHT22;46892;45.668;11.756;2022-08-02T08:52:06;24.30;70.70
55313;DHT22;46892;45.668;11.756;2022-08-02T08:54:32;24.40;70.70
55313;DHT22;46892;45.668;11.756;2022-08-02T08:57:01;24.50;70.80
55313;DHT22;46892;45.668;11.756;2022-08-02T08:59:28;24.60;70.30
55313;DHT22;46892;45.668;11.756;2022-08-02T09:01:54;24.60;71.20
55313;DHT22;46892;45.668;11.756;2022-08-02T09:04:21;24.60;69.20
55313;DHT22;46892;45.668;11.756;2022-08-02T09:06:47;24.40;68.30
55313;DHT22;46892;45.668;11.756;2022-08-02T09:09:13;24.40;69.40
55313;DHT22;46892;45.668;11.756;2022-08-02T09:11:39;24.30;69.10
55313;DHT22;46892;45.668;11.756;2022-08-02T09:14:04;24.30;69.60
55313;DHT22;46892;45.668;11.756;2022-08-02T09:19:18;24.50;71.60
55313;DHT22;46892;45.668;11.756;2022-08-02T09:21:44;24.80;68.90
55313;DHT22;46892;45.668;11.756;2022-08-02T09:24:23;25.20;65.30
55313;DHT22;46892;45.668;11.756;2022-08-02T09:26:50;25.40;64.10
55313;DHT22;46892;45.668;11.756;2022-08-02T09:29:17;25.60;60.60
55313;DHT22;46892;45.668;11.756;2022-08-02T09:31:44;25.70;59.90
55313;DHT22;46892;45.668;11.756;2022-08-02T09:34:10;25.80;61.70
55313;DHT22;46892;45.668;11.756;2022-08-02T09:36:44;25.90;63.60
55313;DHT22;46892;45.668;11.756;2022-08-02T09:39:14;26.10;63.20
55313;DHT22;46892;45.668;11.756;2022-08-02T09:41:42;26.30;64.00
55313;DHT22;46892;45.668;11.756;2022-08-02T09:44:11;26.30;56.30
55313;DHT22;46892;45.668;11.756;2022-08-02T09:46:38;26.40;57.80
55313;DHT22;46892;45.668;11.756;2022-08-02T09:49:10;26.30;54.90
55313;DHT22;46892;45.668;11.756;2022-08-02T09:51:57;26.30;56.40
55313;DHT22;46892;45.668;11.756;2022-08-02T09:54:27;26.40;54.50
55313;DHT22;46892;45.668;11.756;2022-08-02T09:57:00;26.50;55.20
55313;DHT22;46892;45.668;11.756;2022-08-02T09:59:27;26.70;56.20
55313;DHT22;46892;45.668;11.756;2022-08-02T10:01:55;26.70;54.00
55313;DHT22;46892;45.668;11.756;2022-08-02T10:04:22;26.70;52.10
55313;DHT22;46892;45.668;11.756;2022-08-02T10:06:50;26.80;54.30
55313;DHT22;46892;45.668;11.756;2022-08-02T10:09:16;26.80;52.60
55313;DHT22;46892;45.668;11.756;2022-08-02T10:11:42;26.80;55.70
55313;DHT22;46892;45.668;11.756;2022-08-02T10:14:09;26.90;52.40
55313;DHT22;46892;45.668;11.756;2022-08-02T10:16:38;26.90;51.40
55313;DHT22;46892;45.668;11.756;2022-08-02T10:19:04;27.00;51.30
55313;DHT22;46892;45.668;11.756;2022-08-02T10:21:37;27.00;51.80
55313;DHT22;46892;45.668;11.756;2022-08-02T10:26:33;27.20;52.80
55313;DHT22;46892;45.668;11.756;2022-08-02T10:28:59;27.30;50.60
55313;DHT22;46892;45.668;11.756;2022-08-02T10:31:30;27.30;50.50
55313;DHT22;46892;45.668;11.756;2022-08-02T10:33:59;27.30;51.30
55313;DHT22;46892;45.668;11.756;2022-08-02T10:36:30;27.40;52.40
55313;DHT22;46892;45.668;11.756;2022-08-02T10:38:57;27.40;50.20
55313;DHT22;46892;45.668;11.756;2022-08-02T10:41:45;27.40;52.70
55313;DHT22;46892;45.668;11.756;2022-08-02T10:44:31;27.40;52.60
55313;DHT22;46892;45.668;11.756;2022-08-02T10:47:20;27.40;52.30
55313;DHT22;46892;45.668;11.756;2022-08-02T10:49:59;27.60;57.00
55313;DHT22;46892;45.668;11.756;2022-08-02T10:52:29;27.70;54.50
55313;DHT22;46892;45.668;11.756;2022-08-02T10:57:28;27.80;51.80
55313;DHT22;46892;45.668;11.756;2022-08-02T11:02:45;28.00;50.80
55313;DHT22;46892;45.668;11.756;2022-08-02T11:05:37;28.10;52.20
55313;DHT22;46892;45.668;11.756;2022-08-02T11:08:17;28.20;49.90
55313;DHT22;46892;45.668;11.756;2022-08-02T11:10:43;28.30;50.90
55313;DHT22;46892;45.668;11.756;2022-08-02T11:13:16;28.30;48.40
55313;DHT22;46892;45.668;11.756;2022-08-02T11:18:20;28.30;51.80
55313;DHT22;46892;45.668;11.756;2022-08-02T11:20:46;28.30;49.60
55313;DHT22;46892;45.668;11.756;2022-08-02T11:23:38;28.30;48.70
55313;DHT22;46892;45.668;11.756;2022-08-02T11:28:56;28.50;48.20
55313;DHT22;46892;45.668;11.756;2022-08-02T11:31:22;28.50;48.50
55313;DHT22;46892;45.668;11.756;2022-08-02T11:33:49;28.60;51.50
55313;DHT22;46892;45.668;11.756;2022-08-02T11:36:15;28.70;52.40
55313;DHT22;46892;45.668;11.756;2022-08-02T11:38:41;28.80;52.80
55313;DHT22;46892;45.668;11.756;2022-08-02T11:41:07;28.90;50.10
55313;DHT22;46892;45.668;11.756;2022-08-02T11:43:34;29.00;54.10
55313;DHT22;46892;45.668;11.756;2022-08-02T11:46:04;29.20;52.80
55313;DHT22;46892;45.668;11.756;2022-08-02T11:48:31;29.20;52.80
55313;DHT22;46892;45.668;11.756;2022-08-02T11:51:08;29.20;53.60
55313;DHT22;46892;45.668;11.756;2022-08-02T11:54:00;29.20;52.30
55313;DHT22;46892;45.668;11.756;2022-08-02T11:56:28;29.20;48.90
55313;DHT22;46892;45.668;11.756;2022-08-02T11:59:08;29.20;52.40
55313;DHT22;46892;45.668;11.756;2022-08-02T12:01:35;29.20;52.10
55313;DHT22;46892;45.668;11.756;2022-08-02T12:04:02;29.30;50.80
55313;DHT22;46892;45.668;11.756;2022-08-02T12:06:29;29.30;48.70
55313;DHT22;46892;45.668;11.756;2022-08-02T12:09:05;29.40;50.50
55313;DHT22;46892;45.668;11.756;2022-08-02T12:11:32;29.40;49.60
55313;DHT22;46892;45.668;11.756;2022-08-02T12:13:58;29.50;49.90
55313;DHT22;46892;45.668;11.756;2022-08-02T12:16:24;29.50;49.50
55313;DHT22;46892;45.668;11.756;2022-08-02T12:19:15;29.50;51.90
55313;DHT22;46892;45.668;11.756;2022-08-02T12:21:45;29.70;52.50
55313;DHT22;46892;45.668;11.756;2022-08-02T12:24:11;29.70;52.30
55313;DHT22;46892;45.668;11.756;2022-08-02T12:26:41;29.70;48.50
55313;DHT22;46892;45.668;11.756;2022-08-02T12:29:07;29.80;49.00
55313;DHT22;46892;45.668;11.756;2022-08-02T12:31:40;29.80;48.90
55313;DHT22;46892;45.668;11.756;2022-08-02T12:34:17;29.70;49.90
55313;DHT22;46892;45.668;11.756;2022-08-02T12:36:57;29.80;49.40
55313;DHT22;46892;45.668;11.756;2022-08-02T12:42:03;29.80;48.80
55313;DHT22;46892;45.668;11.756;2022-08-02T12:44:28;29.80;47.80
55313;DHT22;46892;45.668;11.756;2022-08-02T12:47:02;29.70;47.20
55313;DHT22;46892;45.668;11.756;2022-08-02T12:49:29;29.70;45.50
55313;DHT22;46892;45.668;11.756;2022-08-02T12:51:55;29.70;46.50
55313;DHT22;46892;45.668;11.756;2022-08-02T12:54:27;29.70;46.30
55313;DHT22;46892;45.668;11.756;2022-08-02T12:56:53;29.80;47.70
55313;DHT22;46892;45.668;11.756;2022-08-02T12:59:40;29.80;48.70
55313;DHT22;46892;45.668;11.756;2022-08-02T13:02:08;29.80;45.40
55313;DHT22;46892;45.668;11.756;2022-08-02T13:04:36;29.80;46.00
55313;DHT22;46892;45.668;11.756;2022-08-02T13:07:10;29.80;46.70
55313;DHT22;46892;45.668;11.756;2022-08-02T13:09:40;29.80;48.70
55313;DHT22;46892;45.668;11.756;2022-08-02T13:12:07;29.90;48.90
55313;DHT22;46892;45.668;11.756;2022-08-02T13:14:34;29.90;46.80
55313;DHT22;46892;45.668;11.756;2022-08-02T13:17:00;29.90;46.10
55313;DHT22;46892;45.668;11.756;2022-08-02T13:19:26;29.90;47.60
55313;DHT22;46892;45.668;11.756;2022-08-02T13:21:52;30.00;45.50
55313;DHT22;46892;45.668;11.756;2022-08-02T13:24:18;30.10;46.20
55313;DHT22;46892;45.668;11.756;2022-08-02T13:26:44;30.10;45.60
55313;DHT22;46892;45.668;11.756;2022-08-02T13:29:12;30.00;46.60
55313;DHT22;46892;45.668;11.756;2022-08-02T13:31:39;30.10;44.20
55313;DHT22;46892;45.668;11.756;2022-08-02T13:34:05;30.10;48.20
55313;DHT22;46892;45.668;11.756;2022-08-02T13:36:33;30.00;44.40
55313;DHT22;46892;45.668;11.756;2022-08-02T13:39:00;30.10;43.70
55313;DHT22;46892;45.668;11.756;2022-08-02T13:41:26;30.20;43.40
55313;DHT22;46892;45.668;11.756;2022-08-02T13:43:52;30.20;44.40
55313;DHT22;46892;45.668;11.756;2022-08-02T13:46:18;30.20;42.00
55313;DHT22;46892;45.668;11.756;2022-08-02T13:48:44;30.20;43.00
55313;DHT22;46892;45.668;11.756;2022-08-02T13:51:10;30.40;41.00
55313;DHT22;46892;45.668;11.756;2022-08-02T13:53:38;30.40;43.20
55313;DHT22;46892;45.668;11.756;2022-08-02T13:56:04;30.30;42.20
55313;DHT22;46892;45.668;11.756;2022-08-02T13:58:30;30.50;44.90
55313;DHT22;46892;45.668;11.756;2022-08-02T14:00:56;30.50;43.70
55313;DHT22;46892;45.668;11.756;2022-08-02T14:03:21;30.50;44.90
55313;DHT22;46892;45.668;11.756;2022-08-02T14:05:47;30.50;43.00
55313;DHT22;46892;45.668;11.756;2022-08-02T14:08:13;30.50;43.00
55313;DHT22;46892;45.668;11.756;2022-08-02T14:10:39;30.40;42.80
55313;DHT22;46892;45.668;11.756;2022-08-02T14:13:05;30.40;42.50
55313;DHT22;46892;45.668;11.756;2022-08-02T14:15:31;30.40;41.90
55313;DHT22;46892;45.668;11.756;2022-08-02T14:17:57;30.40;42.00
55313;DHT22;46892;45.668;11.756;2022-08-02T14:20:23;30.40;42.20
55313;DHT22;46892;45.668;11.756;2022-08-02T14:22:48;30.60;41.80
55313;DHT22;46892;45.668;11.756;2022-08-02T14:25:14;30.60;40.80
55313;DHT22;46892;45.668;11.756;2022-08-02T14:27:40;30.60;41.90
55313;DHT22;46892;45.668;11.756;2022-08-02T14:30:06;30.40;39.90
55313;DHT22;46892;45.668;11.756;2022-08-02T14:32:32;30.40;38.90
55313;DHT22;46892;45.668;11.756;2022-08-02T14:34:57;30.50;43.20
55313;DHT22;46892;45.668;11.756;2022-08-02T14:37:23;30.50;39.40
55313;DHT22;46892;45.668;11.756;2022-08-02T14:39:49;30.40;43.20
55313;DHT22;46892;45.668;11.756;2022-08-02T14:42:14;30.40;41.40
55313;DHT22;46892;45.668;11.756;2022-08-02T14:44:40;30.50;41.90
55313;DHT22;46892;45.668;11.756;2022-08-02T14:47:06;30.50;41.90
55313;DHT22;46892;45.668;11.756;2022-08-02T14:49:31;30.60;42.70
55313;DHT22;46892;45.668;11.756;2022-08-02T14:51:57;30.70;40.20
55313;DHT22;46892;45.668;11.756;2022-08-02T14:54:24;30.60;41.30
55313;DHT22;46892;45.668;11.756;2022-08-02T14:56:56;30.70;39.10
55313;DHT22;46892;45.668;11.756;2022-08-02T14:59:22;30.60;39.50
55313;DHT22;46892;45.668;11.756;2022-08-02T15:01:48;30.60;40.30
55313;DHT22;46892;45.668;11.756;2022-08-02T15:04:13;30.70;42.50
55313;DHT22;46892;45.668;11.756;2022-08-02T15:06:39;30.80;38.80
55313;DHT22;46892;45.668;11.756;2022-08-02T15:09:05;30.80;39.00
55313;DHT22;46892;45.668;11.756;2022-08-02T15:11:30;30.80;40.80
55313;DHT22;46892;45.668;11.756;2022-08-02T15:13:57;30.70;43.20
55313;DHT22;46892;45.668;11.756;2022-08-02T15:16:24;30.70;43.50
55313;DHT22;46892;45.668;11.756;2022-08-02T15:18:50;30.70;44.30
55313;DHT22;46892;45.668;11.756;2022-08-02T15:21:16;30.70;44.10
55313;DHT22;46892;45.668;11.756;2022-08-02T15:23:41;30.60;44.40
55313;DHT22;46892;45.668;11.756;2022-08-02T15:26:07;30.60;44.30
55313;DHT22;46892;45.668;11.756;2022-08-02T15:28:33;30.60;44.00
55313;DHT22;46892;45.668;11.756;2022-08-02T15:30:59;30.70;42.00
55313;DHT22;46892;45.668;11.756;2022-08-02T15:33:45;30.70;44.20
55313;DHT22;46892;45.668;11.756;2022-08-02T15:36:11;30.60;41.70
55313;DHT22;46892;45.668;11.756;2022-08-02T15:38:37;30.60;40.70
55313;DHT22;46892;45.668;11.756;2022-08-02T15:41:03;30.60;40.80
55313;DHT22;46892;45.668;11.756;2022-08-02T15:43:29;30.50;41.20
55313;DHT22;46892;45.668;11.756;2022-08-02T15:45:55;30.50;40.60
55313;DHT22;46892;45.668;11.756;2022-08-02T15:48:21;30.40;42.00
55313;DHT22;46892;45.668;11.756;2022-08-02T15:50:47;30.40;40.00
55313;DHT22;46892;45.668;11.756;2022-08-02T15:53:12;30.30;40.10
55313;DHT22;46892;45.668;11.756;2022-08-02T15:55:38;30.40;40.40
55313;DHT22;46892;45.668;11.756;2022-08-02T15:58:05;30.40;41.10
55313;DHT22;46892;45.668;11.756;2022-08-02T16:00:32;30.40;40.10